Time;durP1;ratioP1;P1;durP2;ratioP2;P2;SDS_P1;SDS_P2;PMS_P1;PMS_P2;Temp;Humidity;BMP_temperature;BMP_pressure;BME280_temperature;BME280_humidity;BME280_pressure;Samples;Min_cycle;Max_cycle;Signal;HPM_P1;HPM_P2
2023/08/11 00:02:15;;;;;;;;;8.50;5.00;;;;;24.30;48.41;101434.63;4979873;28;45597;-46
2023/08/11 00:04:41;;;;;;;;;6.75;6.00;;;;;24.28;48.68;101425.91;4980195;28;45350;-48
2023/08/11 00:07:06;;;;;;;;;6.25;6.25;;;;;24.28;48.17;101421.47;4979841;28;45365;-45
2023/08/11 00:09:31;;;;;;;;;5.25;4.75;;;;;24.26;48.62;101417.19;4979422;28;55745;-50
2023/08/11 00:11:56;;;;;;;;;7.00;7.00;;;;;24.28;48.15;101420.59;4979646;28;45454;-47
2023/08/11 00:14:22;;;;;;;;;6.25;6.00;;;;;24.28;48.58;101420.59;4979939;28;45427;-46
2023/08/11 00:16:47;;;;;;;;;6.50;4.75;;;;;24.27;48.66;101418.91;4980098;28;45333;-47
2023/08/11 00:19:12;;;;;;;;;8.00;7.00;;;;;24.28;48.24;101425.91;4979469;28;58157;-47
2023/08/11 00:21:38;;;;;;;;;5.75;4.75;;;;;24.26;48.41;101420.72;4979321;28;54056;-47
2023/08/11 00:24:03;;;;;;;;;4.75;4.75;;;;;24.25;48.75;101411.06;4983615;28;50207;-53
2023/08/11 00:26:30;;;;;;;;;5.75;5.00;;;;;24.25;48.36;101421.66;4999405;28;45310;-51
2023/08/11 00:28:56;;;;;;;;;5.25;5.25;;;;;24.25;48.77;101424.31;4999005;28;47569;-50
2023/08/11 00:31:21;;;;;;;;;4.75;4.75;;;;;24.24;48.03;101426.13;4999058;28;45235;-46
2023/08/11 00:33:48;;;;;;;;;6.75;6.00;;;;;24.24;48.81;101427.91;4999211;28;45301;-45
2023/08/11 00:36:15;;;;;;;;;6.25;5.75;;;;;24.25;48.21;101424.31;4999654;28;45576;-41
2023/08/11 00:38:40;;;;;;;;;8.50;6.00;;;;;24.24;48.15;101422.59;4999020;28;46197;-50
2023/08/11 00:41:06;;;;;;;;;6.00;6.00;;;;;24.24;48.68;101422.59;4998947;28;45341;-48
2023/08/11 00:43:32;;;;;;;;;6.75;6.00;;;;;24.23;48.51;101416.47;4999047;28;45412;-48
2023/08/11 00:46:01;;;;;;;;;6.25;6.00;;;;;24.23;48.63;101416.47;4999217;28;45350;-52
2023/08/11 00:48:27;;;;;;;;;7.00;6.00;;;;;24.24;47.80;101414.66;4998716;28;46182;-48
2023/08/11 00:50:57;;;;;;;;;6.00;6.00;;;;;24.23;48.76;101412.94;4998651;28;45212;-53
2023/08/11 00:53:23;;;;;;;;;5.75;5.25;;;;;24.23;48.42;101410.31;4998577;28;45329;-52
2023/08/11 00:55:48;;;;;;;;;7.25;6.25;;;;;24.21;48.51;101404.25;4999026;28;45520;-49
2023/08/11 00:58:14;;;;;;;;;5.75;5.00;;;;;24.22;48.26;101408.59;4997605;28;46098;-51
2023/08/11 01:00:39;;;;;;;;;5.00;5.00;;;;;24.21;48.40;101414.84;4998588;28;45416;-46
2023/08/11 01:03:04;;;;;;;;;5.00;5.00;;;;;24.20;48.26;101407.84;4998128;28;58115;-49
2023/08/11 01:05:35;;;;;;;;;7.00;6.00;;;;;24.19;48.87;101406.16;4998818;28;45376;-47
2023/08/11 01:08:29;;;;;;;;;7.00;4.75;;;;;24.21;48.82;101407.75;4998532;28;45442;-49
2023/08/11 01:11:33;;;;;;;;;7.50;5.00;;;;;24.19;48.38;101400.88;4998618;28;45726;-48
2023/08/11 01:14:22;;;;;;;;;6.00;6.00;;;;;24.21;48.46;101406.88;4998703;28;45513;-46
2023/08/11 01:16:50;;;;;;;;;6.00;6.00;;;;;24.18;48.78;101409.75;4998614;28;45411;-45
2023/08/11 01:19:30;;;;;;;;;8.00;6.75;;;;;24.18;48.64;101404.47;4998515;28;46231;-51
2023/08/11 01:21:59;;;;;;;;;7.00;5.75;;;;;24.19;48.89;101406.16;4980747;28;45355;-46
2023/08/11 01:24:26;;;;;;;;;5.25;5.25;;;;;24.17;48.86;101414.19;4998353;28;45385;-46
2023/08/11 01:26:52;;;;;;;;;5.25;5.25;;;;;24.19;48.50;101420.25;4998583;28;45231;-49
2023/08/11 01:29:18;;;;;;;;;8.25;6.75;;;;;24.19;49.04;101427.34;4998508;28;46107;-52
2023/08/11 01:31:44;;;;;;;;;7.00;6.75;;;;;24.18;48.72;101426.47;4998383;28;45307;-46
2023/08/11 01:34:10;;;;;;;;;7.50;6.00;;;;;24.17;49.01;101427.41;4998449;28;45319;-46
2023/08/11 01:36:36;;;;;;;;;6.00;6.00;;;;;24.18;48.47;101431.78;4998488;28;45531;-45
2023/08/11 01:39:04;;;;;;;;;7.00;6.25;;;;;24.17;48.53;101426.59;4997395;28;45328;-48
2023/08/11 01:41:30;;;;;;;;;6.75;6.25;;;;;24.18;49.25;101430.94;4998129;28;45404;-49
2023/08/11 01:43:55;;;;;;;;;6.00;6.00;;;;;24.17;49.29;101439.81;4998179;28;45376;-49
2023/08/11 01:46:22;;;;;;;;;7.00;5.00;;;;;24.16;49.00;101438.13;4998297;28;45782;-50
2023/08/11 01:48:49;;;;;;;;;8.50;6.25;;;;;24.16;49.18;101438.97;4998242;28;45255;-48
2023/08/11 01:51:14;;;;;;;;;9.50;7.25;;;;;24.17;49.47;101445.13;4998059;28;45658;-48
2023/08/11 01:53:40;;;;;;;;;7.50;7.00;;;;;24.15;49.20;101437.25;4997961;28;45440;-45
2023/08/11 01:56:06;;;;;;;;;6.75;6.75;;;;;24.16;49.22;101438.13;4998094;28;45373;-47
2023/08/11 01:58:31;;;;;;;;;9.75;7.00;;;;;24.15;49.21;101447.84;4997652;28;45809;-49
2023/08/11 02:00:56;;;;;;;;;6.00;6.00;;;;;24.14;49.70;101445.31;4997728;28;45317;-49
2023/08/11 02:03:22;;;;;;;;;7.25;7.25;;;;;24.14;49.88;101445.31;4997882;28;45403;-50
2023/08/11 02:05:48;;;;;;;;;8.75;7.00;;;;;24.14;49.41;101445.31;4998278;28;45527;-48
2023/08/11 02:08:18;;;;;;;;;9.25;6.50;;;;;24.15;49.30;101439.06;4997405;28;46373;-44
2023/08/11 02:10:45;;;;;;;;;6.00;6.00;;;;;24.15;49.48;101436.41;4997058;28;45678;-50
2023/08/11 02:13:10;;;;;;;;;9.25;6.25;;;;;24.14;50.12;101437.34;4997775;28;45606;-50
2023/08/11 02:15:35;;;;;;;;;5.75;5.50;;;;;24.14;50.10;101438.22;4980261;28;45461;-45
2023/08/11 02:18:01;;;;;;;;;9.00;7.25;;;;;24.14;50.17;101434.72;4997277;28;48634;-47
2023/08/11 02:20:29;;;;;;;;;11.00;8.50;;;;;24.15;49.65;101431.13;4996912;28;56705;-49
2023/08/11 02:22:54;;;;;;;;;9.00;8.00;;;;;24.15;50.04;101431.13;4997428;28;45320;-51
2023/08/11 02:25:21;;;;;;;;;10.00;8.00;;;;;24.15;49.63;101437.25;4997992;28;45427;-50
2023/08/11 02:27:47;;;;;;;;;6.50;6.25;;;;;24.13;50.06;101433.88;4997645;28;46308;-49
2023/08/11 02:30:13;;;;;;;;;6.00;6.00;;;;;24.11;50.09;101427.81;4979869;28;45374;-49
2023/08/11 02:32:40;;;;;;;;;8.50;5.75;;;;;24.11;49.75;101426.94;4997440;28;45388;-48
2023/08/11 02:35:06;;;;;;;;;8.25;8.00;;;;;24.13;49.84;101438.31;4997415;28;45402;-51
2023/08/11 02:37:32;;;;;;;;;6.00;6.00;;;;;24.12;49.89;101433.94;4997233;28;47073;-52
2023/08/11 02:39:58;;;;;;;;;6.00;6.00;;;;;24.13;49.71;101435.66;4997209;28;45361;-42
2023/08/11 02:42:24;;;;;;;;;8.00;7.00;;;;;24.12;50.19;101432.16;4997226;28;45432;-43
2023/08/11 02:44:50;;;;;;;;;7.25;7.25;;;;;24.13;49.80;101427.72;4997724;28;45461;-44
2023/08/11 02:47:15;;;;;;;;;7.25;7.00;;;;;24.13;50.25;101438.31;4996945;28;45440;-49
2023/08/11 02:49:40;;;;;;;;;7.00;7.00;;;;;24.12;50.20;101431.31;4996142;28;65585;-46
2023/08/11 02:52:05;;;;;;;;;8.50;5.50;;;;;24.12;49.77;101432.16;4979072;28;49482;-48
2023/08/11 02:54:31;;;;;;;;;7.75;6.25;;;;;24.12;50.23;101437.47;4979698;28;45584;-49
2023/08/11 02:56:56;;;;;;;;;6.75;6.50;;;;;24.12;50.19;101437.47;4996812;28;45995;-48
2023/08/11 02:59:21;;;;;;;;;7.25;7.00;;;;;24.11;49.72;101433.13;4996893;28;49782;-48
2023/08/11 03:01:48;;;;;;;;;6.75;6.75;;;;;24.12;49.81;101441.88;4997092;28;45298;-49
2023/08/11 03:04:15;;;;;;;;;7.50;7.00;;;;;24.12;50.15;101439.25;4997062;28;45568;-49
2023/08/11 03:06:42;;;;;;;;;10.25;7.50;;;;;24.11;50.01;101437.53;4996402;28;46262;-52
2023/08/11 03:09:08;;;;;;;;;10.00;8.00;;;;;24.11;49.77;101429.59;4979010;28;45823;-50
2023/08/11 03:11:33;;;;;;;;;7.00;6.50;;;;;24.09;50.47;101433.19;4996778;28;45397;-52
2023/08/11 03:13:59;;;;;;;;;7.75;7.00;;;;;24.11;49.82;101434.88;4996909;28;45451;-51
2023/08/11 03:16:25;;;;;;;;;6.50;6.50;;;;;24.11;50.37;101442.84;4996889;28;46698;-52
2023/08/11 03:18:51;;;;;;;;;7.00;6.00;;;;;24.12;50.37;101434.81;4996881;28;45687;-47
2023/08/11 03:21:17;;;;;;;;;5.75;5.75;;;;;24.12;50.23;101445.41;4995900;28;45212;-47
2023/08/11 03:23:43;;;;;;;;;7.00;7.00;;;;;24.12;49.80;101441.88;4996694;28;45627;-53
2023/08/11 03:26:09;;;;;;;;;7.00;6.00;;;;;24.11;50.37;101440.19;4995766;28;68913;-50
2023/08/11 03:28:35;;;;;;;;;7.75;7.75;;;;;24.12;49.90;101448.06;4996520;28;45266;-48
2023/08/11 03:31:00;;;;;;;;;9.00;8.00;;;;;24.11;50.32;101445.47;4996655;28;45226;-45
2023/08/11 03:33:26;;;;;;;;;10.25;7.00;;;;;24.12;50.44;101449.84;4996975;28;45515;-42
2023/08/11 03:35:51;;;;;;;;;9.25;7.25;;;;;24.11;49.95;101448.13;4996712;28;46254;-48
2023/08/11 03:38:16;;;;;;;;;6.00;6.00;;;;;24.11;50.07;101445.47;4995889;28;56685;-47
2023/08/11 03:40:41;;;;;;;;;9.25;7.00;;;;;24.11;50.48;101445.47;4996432;28;45305;-47
2023/08/11 03:43:07;;;;;;;;;7.00;7.00;;;;;24.08;50.64;101439.47;4996620;28;45348;-50
2023/08/11 03:45:34;;;;;;;;;9.25;8.00;;;;;24.08;50.60;101430.63;4996196;28;47223;-46
2023/08/11 03:48:00;;;;;;;;;9.00;7.75;;;;;24.08;50.52;101438.59;4996263;28;45318;-49
2023/08/11 03:50:25;;;;;;;;;7.25;7.25;;;;;24.08;50.84;101426.22;4996167;28;49592;-50
2023/08/11 03:52:50;;;;;;;;;9.00;7.00;;;;;24.08;50.77;101426.22;4996397;28;45694;-48
2023/08/11 03:55:16;;;;;;;;;5.25;5.25;;;;;24.05;50.82;101426.41;4996020;28;46203;-48
2023/08/11 03:57:41;;;;;;;;;9.00;9.00;;;;;24.06;51.01;101428.09;4995906;28;49999;-41
2023/08/11 04:00:14;;;;;;;;;5.00;5.00;;;;;24.06;50.80;101438.69;4996188;28;45412;-45
2023/08/11 04:02:39;;;;;;;;;9.50;8.00;;;;;24.06;50.48;101428.09;4996362;28;45497;-48
2023/08/11 04:05:05;;;;;;;;;7.75;6.00;;;;;24.06;51.05;101427.22;4996001;28;45711;-44
2023/08/11 04:07:31;;;;;;;;;7.50;7.25;;;;;24.06;50.44;101422.81;4995960;28;45333;-46
2023/08/11 04:09:58;;;;;;;;;8.75;6.50;;;;;24.04;50.84;101416.75;4996476;28;45302;-47
2023/08/11 04:12:23;;;;;;;;;6.25;6.25;;;;;24.06;50.49;101424.59;4996780;28;45503;-48
2023/08/11 04:14:49;;;;;;;;;7.75;7.75;;;;;24.06;50.92;101429.88;4995870;28;45794;-48
2023/08/11 04:17:16;;;;;;;;;7.25;7.00;;;;;24.05;50.47;101418.44;4995898;28;46002;-49
2023/08/11 04:19:42;;;;;;;;;8.00;6.75;;;;;24.06;50.61;101422.81;4995986;28;45349;-51
2023/08/11 04:22:07;;;;;;;;;9.00;7.00;;;;;24.07;50.93;101421.84;4996109;28;45592;-46
2023/08/11 04:24:33;;;;;;;;;7.50;6.50;;;;;24.07;50.80;101410.41;4995741;28;46306;-48
2023/08/11 04:26:59;;;;;;;;;7.75;6.00;;;;;24.06;50.89;101412.22;4996098;28;45365;-45
2023/08/11 04:29:25;;;;;;;;;6.25;5.75;;;;;24.06;50.25;101417.50;4996112;28;45369;-45
2023/08/11 04:31:51;;;;;;;;;7.00;7.00;;;;;24.07;50.54;101413.03;4995941;28;45251;-50
2023/08/11 04:34:16;;;;;;;;;7.00;6.75;;;;;24.04;50.38;101411.44;4998335;28;47716;-46
2023/08/11 04:36:42;;;;;;;;;6.00;6.00;;;;;24.08;50.87;101420.91;4998584;28;58475;-46
2023/08/11 04:39:08;;;;;;;;;8.25;7.75;;;;;24.08;50.36;101420.91;4999084;28;45235;-50
2023/08/11 04:41:33;;;;;;;;;7.50;6.00;;;;;24.07;50.48;101421.00;4981660;28;45399;-46
2023/08/11 04:43:59;;;;;;;;;7.00;5.50;;;;;24.06;50.49;101417.50;4999204;28;45256;-44
2023/08/11 04:46:25;;;;;;;;;7.50;6.50;;;;;24.07;50.99;101419.22;4998806;28;45207;-46
2023/08/11 04:48:50;;;;;;;;;6.75;6.75;;;;;24.05;50.83;101420.22;4999080;28;45270;-49
2023/08/11 04:51:15;;;;;;;;;8.00;7.25;;;;;24.06;50.36;101420.16;4998561;28;51500;-50
2023/08/11 04:53:41;;;;;;;;;6.50;6.00;;;;;24.06;50.93;101417.50;4998567;28;46138;-49
2023/08/11 04:56:06;;;;;;;;;10.00;10.00;;;;;24.06;50.70;101417.50;4998263;28;55178;-48
2023/08/11 04:58:33;;;;;;;;;7.75;7.75;;;;;24.05;51.14;101423.75;4998862;28;45331;-45
2023/08/11 05:01:03;;;;;;;;;9.00;7.00;;;;;24.04;51.02;101418.53;4999186;28;45431;-49
2023/08/11 05:03:28;;;;;;;;;7.00;6.50;;;;;24.02;50.84;101415.16;4998917;28;47089;-45
2023/08/11 05:05:53;;;;;;;;;9.75;6.25;;;;;24.03;51.10;101419.50;4998633;28;45274;-48
2023/08/11 05:08:19;;;;;;;;;8.00;7.25;;;;;24.02;51.34;101423.09;4998494;28;45305;-51
2023/08/11 05:10:44;;;;;;;;;8.00;7.50;;;;;23.99;51.43;101426.75;4998833;28;45395;-48
2023/08/11 05:13:09;;;;;;;;;10.00;8.00;;;;;23.99;51.03;101424.09;4997717;28;65008;-47
2023/08/11 05:15:35;;;;;;;;;8.75;8.00;;;;;23.97;51.05;101420.72;4998460;28;45440;-46
2023/08/11 05:18:01;;;;;;;;;9.00;8.00;;;;;23.95;51.87;101412.00;4999085;28;45218;-46
2023/08/11 05:20:27;;;;;;;;;8.75;7.50;;;;;23.90;51.39;101414.03;4998683;28;45400;-49
2023/08/11 05:22:53;;;;;;;;;12.50;9.25;;;;;23.90;51.84;101411.41;4998266;28;46126;-47
2023/08/11 05:25:18;;;;;;;;;8.75;8.75;;;;;23.89;51.96;101417.63;4998324;28;45432;-49
2023/08/11 05:27:43;;;;;;;;;9.75;8.25;;;;;23.86;51.58;101416.03;4998056;28;49877;-49
2023/08/11 05:30:09;;;;;;;;;9.00;7.50;;;;;23.88;52.11;101419.44;4998011;28;47147;-50
2023/08/11 05:32:34;;;;;;;;;9.25;9.25;;;;;23.87;52.12;101411.56;4998097;28;47320;-48
2023/08/11 05:35:00;;;;;;;;;9.50;9.00;;;;;23.86;52.09;101413.38;4998463;28;45361;-47
2023/08/11 05:37:25;;;;;;;;;10.25;9.00;;;;;23.85;52.31;101413.50;4998258;28;45783;-49
2023/08/11 05:39:54;;;;;;;;;10.75;9.00;;;;;23.85;52.14;101416.13;4998282;28;45366;-52
2023/08/11 05:42:19;;;;;;;;;11.00;9.00;;;;;23.84;52.08;101423.22;4997916;28;46552;-52
2023/08/11 05:44:44;;;;;;;;;10.75;9.00;;;;;23.84;52.14;101419.72;4997107;28;45218;-45
2023/08/11 05:47:10;;;;;;;;;9.00;8.50;;;;;23.83;51.96;101425.97;4998170;28;45203;-48
2023/08/11 05:49:35;;;;;;;;;8.75;8.75;;;;;23.85;52.18;101435.50;4998167;28;45564;-46
2023/08/11 05:52:00;;;;;;;;;7.25;7.00;;;;;23.86;52.35;101433.72;4997549;28;62786;-48
2023/08/11 05:54:26;;;;;;;;;9.00;9.00;;;;;23.84;51.86;101428.50;4997898;28;45476;-48
2023/08/11 05:56:52;;;;;;;;;9.00;9.00;;;;;23.85;51.96;101434.66;4997674;28;50224;-51
2023/08/11 05:59:19;;;;;;;;;10.00;9.50;;;;;23.86;52.51;101431.06;4997934;28;45531;-51
2023/08/11 06:01:44;;;;;;;;;10.50;8.75;;;;;23.86;52.17;101425.78;4997639;28;46332;-49
2023/08/11 06:04:09;;;;;;;;;9.25;8.25;;;;;23.85;52.09;101430.22;4997723;28;45306;-52
2023/08/11 06:06:35;;;;;;;;;9.00;8.00;;;;;23.86;52.51;101436.38;4979789;28;57074;-49
2023/08/11 06:09:00;;;;;;;;;9.25;9.00;;;;;23.85;51.97;101437.31;4998331;28;45453;-49
2023/08/11 06:11:25;;;;;;;;;9.25;9.00;;;;;23.85;52.62;101446.09;4997410;28;45370;-48
2023/08/11 06:13:51;;;;;;;;;10.25;9.50;;;;;23.88;52.71;101445.06;4997378;28;45352;-49
2023/08/11 06:16:16;;;;;;;;;10.25;9.00;;;;;23.88;52.41;101440.63;4997590;28;45421;-51
2023/08/11 06:18:42;;;;;;;;;9.00;8.75;;;;;23.88;52.40;101435.31;4997519;28;45677;-47
2023/08/11 06:21:07;;;;;;;;;10.25;9.25;;;;;23.90;52.27;101432.56;4997393;28;45263;-51
2023/08/11 06:23:32;;;;;;;;;10.75;9.00;;;;;23.92;52.40;101441.28;4997561;28;45211;-46
2023/08/11 06:25:58;;;;;;;;;8.00;8.00;;;;;23.91;52.40;101437.81;4997548;28;45226;-50
2023/08/11 06:28:24;;;;;;;;;8.00;8.00;;;;;23.92;52.92;101446.56;4997550;28;45594;-45
2023/08/11 06:30:49;;;;;;;;;9.50;7.25;;;;;23.92;53.08;101438.63;4997207;28;46232;-50
2023/08/11 06:33:15;;;;;;;;;7.75;6.50;;;;;23.93;52.36;101446.47;4997251;28;45286;-50
2023/08/11 06:35:42;;;;;;;;;9.00;9.00;;;;;23.94;52.89;101445.53;4997381;28;45282;-46
2023/08/11 06:38:08;;;;;;;;;11.00;8.00;;;;;23.93;52.89;101437.69;4997533;28;45389;-47
2023/08/11 06:40:34;;;;;;;;;8.75;7.50;;;;;23.97;52.46;101451.63;4997330;28;45753;-51
2023/08/11 06:43:00;;;;;;;;;9.75;9.75;;;;;23.96;52.43;101444.63;4997089;28;45318;-51
2023/08/11 06:45:25;;;;;;;;;10.67;9.67;;;;;23.97;52.57;101447.19;4996684;28;53973;-46
2023/08/11 06:47:51;;;;;;;;;11.00;8.50;;;;;23.99;52.62;101452.38;4996946;28;45547;-49
2023/08/11 06:50:16;;;;;;;;;8.50;8.50;;;;;24.00;53.06;101452.28;4996908;28;45242;-49
2023/08/11 06:52:42;;;;;;;;;9.00;9.00;;;;;24.00;53.11;101448.81;4996870;28;45300;-50
2023/08/11 06:55:07;;;;;;;;;6.50;6.50;;;;;24.02;53.49;101454.88;4997369;28;45178;-49
2023/08/11 06:57:33;;;;;;;;;9.50;8.50;;;;;24.02;53.58;101463.63;4997345;28;45223;-53
2023/08/11 06:59:58;;;;;;;;;7.00;7.00;;;;;24.04;53.94;101467.06;4978856;28;57817;-49
2023/08/11 07:02:24;;;;;;;;;6.00;6.00;;;;;24.03;53.37;101462.69;4996868;28;45308;-47
2023/08/11 07:04:49;;;;;;;;;9.50;8.00;;;;;24.06;53.56;101469.59;4996994;28;45364;-49
2023/08/11 07:07:14;;;;;;;;;8.00;8.00;;;;;24.04;54.23;101463.53;4996935;28;45494;-48
2023/08/11 07:09:39;;;;;;;;;6.75;6.25;;;;;24.06;54.24;101472.25;4996523;28;49163;-47
2023/08/11 07:12:06;;;;;;;;;6.33;6.00;;;;;24.07;54.19;101472.16;4996415;28;60036;-52
2023/08/11 07:14:31;;;;;;;;;5.75;5.75;;;;;24.07;54.18;101472.16;4996850;28;45262;-50
2023/08/11 07:16:57;;;;;;;;;7.00;6.00;;;;;24.09;54.72;101475.56;4995596;28;45360;-53
2023/08/11 07:19:22;;;;;;;;;8.00;7.00;;;;;24.12;54.18;101484.25;4976813;28;45342;-49
2023/08/11 07:21:47;;;;;;;;;5.50;5.50;;;;;24.12;54.61;101492.22;4976919;28;45317;-51
2023/08/11 07:24:13;;;;;;;;;7.25;6.25;;;;;24.12;54.48;101497.50;4977010;28;45363;-52
2023/08/11 07:26:38;;;;;;;;;7.50;6.75;;;;;24.09;54.54;101494.09;4977512;28;45536;-52
2023/08/11 07:29:03;;;;;;;;;9.00;7.75;;;;;24.13;55.11;101496.56;4976621;28;45372;-48
2023/08/11 07:31:29;;;;;;;;;6.00;6.00;;;;;24.14;54.93;101500.91;4976698;28;45345;-51
2023/08/11 07:33:54;;;;;;;;;6.25;6.25;;;;;24.13;54.89;101515.97;4976921;28;45255;-49
2023/08/11 07:36:20;;;;;;;;;7.75;6.25;;;;;24.14;54.76;101515.03;4977003;28;45480;-51
2023/08/11 07:38:45;;;;;;;;;9.00;7.50;;;;;24.15;54.61;101511.41;4976725;28;45381;-44
2023/08/11 07:41:11;;;;;;;;;7.00;6.25;;;;;24.14;54.65;101511.50;4943322;28;45471;-44
2023/08/11 07:43:36;;;;;;;;;7.25;6.25;;;;;24.17;54.46;101519.28;4977061;28;45401;-48
2023/08/11 07:46:02;;;;;;;;;6.75;6.75;;;;;24.19;54.40;101522.69;4977127;28;45532;-45
2023/08/11 07:48:27;;;;;;;;;9.50;7.25;;;;;24.18;55.23;101515.69;4989068;28;46322;-46
2023/08/11 07:50:52;;;;;;;;;7.75;7.00;;;;;24.19;55.49;101515.59;4995706;28;56066;-51
2023/08/11 07:53:18;;;;;;;;;8.00;8.00;;;;;24.19;54.91;101517.41;4996011;28;47999;-48
2023/08/11 07:55:43;;;;;;;;;9.00;8.00;;;;;24.19;55.47;101522.69;4996509;28;45387;-47
2023/08/11 07:58:08;;;;;;;;;8.75;7.00;;;;;24.19;55.66;101525.34;4996193;28;51622;-49
2023/08/11 08:00:33;;;;;;;;;9.50;8.00;;;;;24.20;55.88;101524.38;4996086;28;45294;-52
2023/08/11 08:02:59;;;;;;;;;11.00;7.75;;;;;24.18;55.82;101519.19;4996341;28;45292;-48
2023/08/11 08:05:24;;;;;;;;;11.25;9.00;;;;;24.21;55.98;101534.91;4978718;28;45552;-48
2023/08/11 08:07:49;;;;;;;;;8.00;7.00;;;;;24.19;55.90;101528.00;4996125;28;60260;-46
2023/08/11 08:10:15;;;;;;;;;12.00;9.25;;;;;24.22;55.90;101527.78;4999442;28;45310;-51
2023/08/11 08:12:45;;;;;;;;;9.75;9.00;;;;;24.22;55.85;101528.66;4999777;28;45265;-50
2023/08/11 08:15:11;;;;;;;;;8.00;8.00;;;;;24.23;55.85;101532.13;4999949;28;45308;-45
2023/08/11 08:17:38;;;;;;;;;9.50;8.00;;;;;24.24;56.13;101532.06;4999242;28;46469;-46
2023/08/11 08:20:05;;;;;;;;;10.75;9.00;;;;;24.26;55.56;101534.63;4999403;28;45785;-48
2023/08/11 08:22:32;;;;;;;;;9.75;7.75;;;;;24.26;56.14;101524.03;4999386;28;45183;-52
2023/08/11 08:24:58;;;;;;;;;9.00;9.00;;;;;24.26;56.28;101529.31;4999500;28;45336;-54
2023/08/11 08:27:26;;;;;;;;;8.75;8.25;;;;;24.27;56.37;101525.72;4999115;28;45245;-50
2023/08/11 08:29:52;;;;;;;;;9.00;7.50;;;;;24.29;56.26;101523.84;4999134;28;45349;-46
2023/08/11 08:32:19;;;;;;;;;8.00;8.00;;;;;24.30;56.64;101520.25;4999179;28;45232;-49
2023/08/11 08:34:44;;;;;;;;;7.75;7.75;;;;;24.32;56.14;101526.28;4998521;28;45251;-43
2023/08/11 18:04:43;;;;;;;;;3.75;3.75;;;;;24.62;58.13;101509.47;6073565;22;46492;-39
2023/08/11 18:07:08;;;;;;;;;3.50;2.50;;;;;24.64;57.85;101504.06;4955406;28;45468;-37
2023/08/11 18:09:34;;;;;;;;;3.75;3.75;;;;;24.65;57.89;101509.25;4958046;28;45456;-41
2023/08/11 18:11:59;;;;;;;;;3.25;3.25;;;;;24.66;57.89;101503.00;4972632;28;48173;-38
2023/08/11 18:14:25;;;;;;;;;2.00;2.00;;;;;24.66;57.85;101508.31;4957234;28;56345;-39
2023/08/11 18:16:50;;;;;;;;;4.25;4.25;;;;;24.68;58.32;101514.41;4957990;28;45345;-46
2023/08/11 18:19:15;;;;;;;;;4.00;4.00;;;;;24.68;57.54;101522.34;4958171;28;45250;-46
2023/08/11 18:21:41;;;;;;;;;5.25;4.50;;;;;24.69;58.33;101523.22;4957020;28;55057;-42
2023/08/11 18:24:07;;;;;;;;;2.75;2.75;;;;;24.69;57.80;101528.53;4957931;28;45330;-43
2023/08/11 18:26:34;;;;;;;;;4.00;3.50;;;;;24.70;57.92;101530.19;4957418;28;45305;-38
2023/08/11 18:29:00;;;;;;;;;5.00;4.00;;;;;24.70;57.40;101532.84;4958090;28;45293;-38
2023/08/11 18:31:25;;;;;;;;;4.25;4.25;;;;;24.70;57.67;101525.75;4957183;28;46088;-39
2023/08/11 18:33:50;;;;;;;;;6.00;4.00;;;;;24.72;57.67;101524.81;4957636;28;45360;-38
2023/08/11 18:36:16;;;;;;;;;3.75;3.50;;;;;24.70;58.37;101512.50;4957712;28;45417;-40
2023/08/11 18:38:44;;;;;;;;;5.00;3.00;;;;;24.71;57.67;101516.00;4957776;28;45558;-40
2023/08/11 18:41:10;;;;;;;;;4.00;4.00;;;;;24.72;58.45;101500.97;4957567;28;46546;-40
2023/08/11 18:43:35;;;;;;;;;3.25;2.00;;;;;24.69;58.57;101481.66;4957586;28;45433;-37
2023/08/11 18:46:03;;;;;;;;;5.00;4.00;;;;;24.68;58.43;101450.78;4956951;28;60958;-39
2023/08/11 18:48:29;;;;;;;;;5.00;4.75;;;;;24.67;58.81;101438.44;4957559;28;45349;-39
2023/08/11 18:50:54;;;;;;;;;6.00;4.25;;;;;24.65;58.69;101466.00;4957369;28;46151;-39
2023/08/11 18:53:20;;;;;;;;;6.00;3.50;;;;;24.64;58.74;101496.94;4972182;28;45750;-37
2023/08/11 18:55:45;;;;;;;;;5.75;3.00;;;;;24.64;58.72;101507.53;4972199;28;45643;-47
2023/08/11 18:58:10;;;;;;;;;3.00;3.00;;;;;24.65;58.48;101511.91;4957668;28;45570;-39
2023/08/11 19:00:36;;;;;;;;;3.00;3.00;;;;;24.65;58.09;101513.72;4957189;28;46074;-45
2023/08/11 19:03:01;;;;;;;;;6.25;5.00;;;;;24.66;57.97;101500.34;4957152;28;45282;-39
2023/08/11 19:05:27;;;;;;;;;5.00;3.50;;;;;24.66;58.09;101499.50;4963164;28;45321;-39
2023/08/11 19:07:52;;;;;;;;;3.25;3.25;;;;;24.66;58.99;101500.34;4976953;28;45567;-39
2023/08/11 19:10:18;;;;;;;;;4.50;4.00;;;;;24.64;58.78;101502.25;4976457;28;46338;-36
2023/08/11 19:12:43;;;;;;;;;4.00;4.00;;;;;24.64;58.88;101502.25;4976235;28;45323;-43
2023/08/11 19:15:09;;;;;;;;;5.25;4.50;;;;;24.66;59.07;101504.81;4976957;28;45497;-43
2023/08/11 19:17:34;;;;;;;;;6.25;4.50;;;;;24.63;58.66;101500.56;4976954;28;45383;-41
2023/08/11 19:20:00;;;;;;;;;6.25;4.00;;;;;24.63;59.02;101495.25;4976968;28;46076;-47
2023/08/11 19:22:26;;;;;;;;;4.75;4.00;;;;;24.62;59.38;101498.00;4975811;28;45773;-41
2023/08/11 19:24:51;;;;;;;;;6.00;5.50;;;;;24.60;58.94;101494.59;4977175;28;45404;-46
2023/08/11 19:27:17;;;;;;;;;4.00;4.00;;;;;24.61;59.23;101496.28;4975933;28;45414;-41
2023/08/11 19:29:43;;;;;;;;;5.75;5.25;;;;;24.60;59.19;101495.44;4976915;28;46147;-39
2023/08/11 19:32:09;;;;;;;;;8.25;6.00;;;;;24.59;59.14;101495.53;4959751;28;46093;-39
2023/08/11 19:34:34;;;;;;;;;5.75;4.00;;;;;24.59;59.06;101501.69;4976956;28;45251;-40
2023/08/11 19:36:59;;;;;;;;;6.25;5.00;;;;;24.57;59.68;101495.63;4976744;28;45540;-39
2023/08/11 19:39:25;;;;;;;;;5.50;4.25;;;;;24.57;59.27;101498.28;4976768;28;45518;-41
2023/08/11 19:41:50;;;;;;;;;8.25;6.00;;;;;24.55;59.86;101497.53;4976739;28;45416;-37
2023/08/11 19:44:16;;;;;;;;;5.25;4.00;;;;;24.53;59.51;101494.09;4976861;28;45468;-44
2023/08/11 19:46:41;;;;;;;;;4.00;4.00;;;;;24.50;59.87;101484.56;4977269;28;45434;-40
2023/08/11 19:49:06;;;;;;;;;4.00;3.75;;;;;24.51;59.54;101490.72;4976493;28;46867;-44
2023/08/11 19:51:32;;;;;;;;;7.50;6.00;;;;;24.49;60.33;101482.84;4976442;28;45266;-45
2023/08/11 19:53:58;;;;;;;;;7.00;7.00;;;;;24.47;60.09;101479.47;4975354;28;45201;-39
2023/08/11 19:56:23;;;;;;;;;7.50;5.50;;;;;24.46;60.09;101483.06;4976811;28;45358;-41
2023/08/11 19:58:49;;;;;;;;;9.50;6.25;;;;;24.45;59.75;101477.84;4976385;28;46038;-40
2023/08/11 20:01:14;;;;;;;;;6.25;6.00;;;;;24.45;60.33;101483.16;4976451;28;45409;-45
2023/08/11 20:03:39;;;;;;;;;5.50;5.25;;;;;24.44;60.42;101471.72;4976931;28;59597;-44
2023/08/11 20:06:05;;;;;;;;;6.00;6.00;;;;;24.43;60.46;101466.47;4980047;28;45364;-38
2023/08/11 20:08:30;;;;;;;;;7.50;7.00;;;;;24.41;60.27;101463.09;4979759;28;46125;-39
2023/08/11 20:10:56;;;;;;;;;8.75;6.50;;;;;24.39;60.63;101460.53;4979554;28;50017;-49
2023/08/11 20:13:22;;;;;;;;;8.00;7.75;;;;;24.39;60.40;101456.09;4979842;28;45871;-44
2023/08/11 20:15:47;;;;;;;;;5.75;4.75;;;;;24.38;60.09;101449.09;4980124;28;45389;-52
2023/08/11 20:18:13;;;;;;;;;7.75;4.25;;;;;24.38;60.25;101457.03;4980041;28;45249;-51
2023/08/11 20:20:41;;;;;;;;;6.50;5.25;;;;;24.38;60.19;101456.16;4979601;28;45345;-52
2023/08/11 20:23:06;;;;;;;;;4.50;4.00;;;;;24.37;59.96;101442.09;4979868;28;45246;-53
2023/08/11 20:25:32;;;;;;;;;8.00;5.00;;;;;24.37;60.27;101439.44;4979787;28;45236;-47
2023/08/11 20:27:58;;;;;;;;;4.00;4.00;;;;;24.37;60.11;101438.56;4961957;28;47228;-49
2023/08/11 20:30:23;;;;;;;;;5.50;5.50;;;;;24.38;60.35;101435.84;4979642;28;45504;-54
2023/08/11 20:32:49;;;;;;;;;7.00;6.00;;;;;24.38;59.84;101432.31;4979571;28;45605;-52
2023/08/11 20:35:15;;;;;;;;;6.00;4.50;;;;;24.38;59.94;101437.63;4980250;28;45322;-52
2023/08/11 20:37:40;;;;;;;;;5.25;5.25;;;;;24.38;59.88;101433.19;4979527;28;46509;-44
2023/08/11 20:40:08;;;;;;;;;7.75;5.75;;;;;24.38;59.75;101433.19;4979469;28;45439;-44
2023/08/11 20:42:34;;;;;;;;;5.75;4.00;;;;;24.39;59.95;101434.91;4978192;28;45407;-45
2023/08/11 20:44:59;;;;;;;;;5.50;4.25;;;;;24.38;59.89;101425.25;4979614;28;45247;-38
2023/08/11 20:47:24;;;;;;;;;6.00;6.00;;;;;24.38;60.19;101438.50;4978777;28;58929;-44